sensor_id;sensor_type;location;lat;lon;timestamp;P1;durP1;ratioP1;P2;durP2;ratioP2
43311;SDS011;30041;48.300;16.352;2024-01-30T00:00:21;0.50;;;0.40;;
43311;SDS011;30041;48.300;16.352;2024-01-30T00:02:47;1.08;;;0.75;;
43311;SDS011;30041;48.300;16.352;2024-01-30T00:05:13;1.05;;;0.60;;
43311;SDS011;30041;48.300;16.352;2024-01-30T00:07:41;0.75;;;0.60;;
43311;SDS011;30041;48.300;16.352;2024-01-30T00:10:10;0.70;;;0.60;;
43311;SDS011;30041;48.300;16.352;2024-01-30T00:12:35;0.93;;;0.60;;
43311;SDS011;30041;48.300;16.352;2024-01-30T00:15:01;1.90;;;1.00;;
43311;SDS011;30041;48.300;16.352;2024-01-30T00:17:27;0.75;;;0.52;;
43311;SDS011;30041;48.300;16.352;2024-01-30T00:19:53;1.23;;;0.60;;
43311;SDS011;30041;48.300;16.352;2024-01-30T00:22:19;0.90;;;0.60;;
43311;SDS011;30041;48.300;16.352;2024-01-30T00:24:44;1.35;;;0.80;;
43311;SDS011;30041;48.300;16.352;2024-01-30T00:27:10;1.05;;;0.60;;
43311;SDS011;30041;48.300;16.352;2024-01-30T00:29:36;1.98;;;0.60;;
43311;SDS011;30041;48.300;16.352;2024-01-30T00:32:02;0.80;;;0.40;;
43311;SDS011;30041;48.300;16.352;2024-01-30T00:34:27;0.40;;;0.40;;
43311;SDS011;30041;48.300;16.352;2024-01-30T00:36:53;0.55;;;0.50;;
43311;SDS011;30041;48.300;16.352;2024-01-30T00:39:19;0.98;;;0.60;;
43311;SDS011;30041;48.300;16.352;2024-01-30T00:41:45;1.08;;;0.70;;
43311;SDS011;30041;48.300;16.352;2024-01-30T00:44:11;0.70;;;0.60;;
43311;SDS011;30041;48.300;16.352;2024-01-30T00:46:36;1.00;;;0.52;;
43311;SDS011;30041;48.300;16.352;2024-01-30T00:49:02;1.40;;;0.80;;
43311;SDS011;30041;48.300;16.352;2024-01-30T00:51:28;0.60;;;0.60;;
43311;SDS011;30041;48.300;16.352;2024-01-30T00:53:54;1.33;;;0.80;;
43311;SDS011;30041;48.300;16.352;2024-01-30T00:56:19;0.60;;;0.50;;
43311;SDS011;30041;48.300;16.352;2024-01-30T00:58:45;0.60;;;0.38;;
43311;SDS011;30041;48.300;16.352;2024-01-30T01:01:11;0.57;;;0.50;;
43311;SDS011;30041;48.300;16.352;2024-01-30T01:03:37;1.42;;;0.70;;
43311;SDS011;30041;48.300;16.352;2024-01-30T01:06:02;1.10;;;0.80;;
43311;SDS011;30041;48.300;16.352;2024-01-30T01:08:28;1.13;;;0.60;;
43311;SDS011;30041;48.300;16.352;2024-01-30T01:10:54;0.90;;;0.60;;
43311;SDS011;30041;48.300;16.352;2024-01-30T01:13:20;0.63;;;0.50;;
43311;SDS011;30041;48.300;16.352;2024-01-30T01:15:48;0.95;;;0.60;;
43311;SDS011;30041;48.300;16.352;2024-01-30T01:18:14;0.90;;;0.50;;
43311;SDS011;30041;48.300;16.352;2024-01-30T01:20:40;0.60;;;0.50;;
43311;SDS011;30041;48.300;16.352;2024-01-30T01:23:06;0.68;;;0.50;;
43311;SDS011;30041;48.300;16.352;2024-01-30T01:25:31;0.63;;;0.50;;
43311;SDS011;30041;48.300;16.352;2024-01-30T01:27:57;0.50;;;0.40;;
43311;SDS011;30041;48.300;16.352;2024-01-30T01:30:23;1.02;;;0.73;;
43311;SDS011;30041;48.300;16.352;2024-01-30T01:32:49;1.00;;;0.68;;
43311;SDS011;30041;48.300;16.352;2024-01-30T01:35:14;1.60;;;0.77;;
43311;SDS011;30041;48.300;16.352;2024-01-30T01:37:40;1.30;;;0.80;;
43311;SDS011;30041;48.300;16.352;2024-01-30T01:40:06;1.10;;;0.57;;
43311;SDS011;30041;48.300;16.352;2024-01-30T01:42:35;0.82;;;0.63;;
43311;SDS011;30041;48.300;16.352;2024-01-30T01:45:01;1.13;;;0.65;;
43311;SDS011;30041;48.300;16.352;2024-01-30T01:47:27;0.95;;;0.60;;
43311;SDS011;30041;48.300;16.352;2024-01-30T01:49:53;1.02;;;0.57;;
43311;SDS011;30041;48.300;16.352;2024-01-30T01:52:19;0.98;;;0.70;;
43311;SDS011;30041;48.300;16.352;2024-01-30T01:54:44;0.85;;;0.63;;
43311;SDS011;30041;48.300;16.352;2024-01-30T01:57:10;0.93;;;0.63;;
43311;SDS011;30041;48.300;16.352;2024-01-30T01:59:36;0.70;;;0.50;;
43311;SDS011;30041;48.300;16.352;2024-01-30T02:02:02;0.50;;;0.40;;
43311;SDS011;30041;48.300;16.352;2024-01-30T02:04:29;0.40;;;0.40;;
43311;SDS011;30041;48.300;16.352;2024-01-30T02:06:55;0.93;;;0.55;;
43311;SDS011;30041;48.300;16.352;2024-01-30T02:09:21;1.05;;;0.70;;
43311;SDS011;30041;48.300;16.352;2024-01-30T02:11:47;0.70;;;0.60;;
43311;SDS011;30041;48.300;16.352;2024-01-30T02:14:13;0.88;;;0.60;;
43311;SDS011;30041;48.300;16.352;2024-01-30T02:16:40;0.60;;;0.43;;
43311;SDS011;30041;48.300;16.352;2024-01-30T02:19:07;0.82;;;0.52;;
43311;SDS011;30041;48.300;16.352;2024-01-30T02:21:33;1.38;;;0.65;;
43311;SDS011;30041;48.300;16.352;2024-01-30T02:23:59;0.65;;;0.47;;
43311;SDS011;30041;48.300;16.352;2024-01-30T02:26:26;1.08;;;0.70;;
43311;SDS011;30041;48.300;16.352;2024-01-30T02:28:54;0.68;;;0.40;;
43311;SDS011;30041;48.300;16.352;2024-01-30T02:31:24;1.00;;;0.60;;
43311;SDS011;30041;48.300;16.352;2024-01-30T02:33:51;1.05;;;0.63;;
43311;SDS011;30041;48.300;16.352;2024-01-30T02:36:16;0.85;;;0.60;;
43311;SDS011;30041;48.300;16.352;2024-01-30T02:38:42;0.30;;;0.30;;
43311;SDS011;30041;48.300;16.352;2024-01-30T02:41:08;0.77;;;0.50;;
43311;SDS011;30041;48.300;16.352;2024-01-30T02:43:34;1.13;;;0.60;;
43311;SDS011;30041;48.300;16.352;2024-01-30T02:45:59;0.80;;;0.47;;
43311;SDS011;30041;48.300;16.352;2024-01-30T02:48:25;0.75;;;0.50;;
43311;SDS011;30041;48.300;16.352;2024-01-30T02:50:56;1.23;;;0.52;;
43311;SDS011;30041;48.300;16.352;2024-01-30T02:53:22;0.43;;;0.30;;
43311;SDS011;30041;48.300;16.352;2024-01-30T02:55:48;0.70;;;0.50;;
43311;SDS011;30041;48.300;16.352;2024-01-30T02:58:14;0.95;;;0.60;;
43311;SDS011;30041;48.300;16.352;2024-01-30T03:00:39;0.73;;;0.40;;
43311;SDS011;30041;48.300;16.352;2024-01-30T03:03:05;0.57;;;0.50;;
43311;SDS011;30041;48.300;16.352;2024-01-30T03:05:31;0.63;;;0.40;;
43311;SDS011;30041;48.300;16.352;2024-01-30T03:07:57;0.70;;;0.50;;
43311;SDS011;30041;48.300;16.352;2024-01-30T03:10:23;0.75;;;0.50;;
43311;SDS011;30041;48.300;16.352;2024-01-30T03:12:49;0.85;;;0.63;;
43311;SDS011;30041;48.300;16.352;2024-01-30T03:15:14;0.70;;;0.40;;
43311;SDS011;30041;48.300;16.352;2024-01-30T03:17:40;1.02;;;0.60;;
43311;SDS011;30041;48.300;16.352;2024-01-30T03:20:06;0.57;;;0.47;;
43311;SDS011;30041;48.300;16.352;2024-01-30T03:22:32;0.73;;;0.45;;
43311;SDS011;30041;48.300;16.352;2024-01-30T03:24:58;0.65;;;0.52;;
43311;SDS011;30041;48.300;16.352;2024-01-30T03:27:24;0.80;;;0.45;;
43311;SDS011;30041;48.300;16.352;2024-01-30T03:29:49;0.90;;;0.70;;
43311;SDS011;30041;48.300;16.352;2024-01-30T03:32:15;0.57;;;0.47;;
43311;SDS011;30041;48.300;16.352;2024-01-30T03:34:41;1.02;;;0.50;;
43311;SDS011;30041;48.300;16.352;2024-01-30T03:37:06;1.13;;;0.60;;
43311;SDS011;30041;48.300;16.352;2024-01-30T03:39:32;0.50;;;0.40;;
43311;SDS011;30041;48.300;16.352;2024-01-30T03:41:58;1.20;;;0.80;;
43311;SDS011;30041;48.300;16.352;2024-01-30T03:44:24;0.60;;;0.50;;
43311;SDS011;30041;48.300;16.352;2024-01-30T03:46:50;1.13;;;0.60;;
43311;SDS011;30041;48.300;16.352;2024-01-30T03:49:15;0.60;;;0.43;;
43311;SDS011;30041;48.300;16.352;2024-01-30T03:51:44;0.70;;;0.35;;
43311;SDS011;30041;48.300;16.352;2024-01-30T03:54:10;0.47;;;0.40;;
43311;SDS011;30041;48.300;16.352;2024-01-30T03:56:35;0.88;;;0.60;;
43311;SDS011;30041;48.300;16.352;2024-01-30T03:59:01;0.50;;;0.50;;
43311;SDS011;30041;48.300;16.352;2024-01-30T04:01:27;0.45;;;0.40;;
43311;SDS011;30041;48.300;16.352;2024-01-30T04:03:52;0.73;;;0.50;;
43311;SDS011;30041;48.300;16.352;2024-01-30T04:06:18;0.70;;;0.40;;
43311;SDS011;30041;48.300;16.352;2024-01-30T04:08:44;0.90;;;0.52;;
43311;SDS011;30041;48.300;16.352;2024-01-30T04:11:10;0.60;;;0.30;;
43311;SDS011;30041;48.300;16.352;2024-01-30T04:13:36;0.73;;;0.50;;
43311;SDS011;30041;48.300;16.352;2024-01-30T04:16:01;0.68;;;0.50;;
43311;SDS011;30041;48.300;16.352;2024-01-30T04:18:28;0.82;;;0.60;;
43311;SDS011;30041;48.300;16.352;2024-01-30T04:20:54;0.50;;;0.30;;
43311;SDS011;30041;48.300;16.352;2024-01-30T04:23:20;0.50;;;0.40;;
43311;SDS011;30041;48.300;16.352;2024-01-30T04:25:48;0.38;;;0.30;;
43311;SDS011;30041;48.300;16.352;2024-01-30T04:28:14;1.23;;;0.70;;
43311;SDS011;30041;48.300;16.352;2024-01-30T04:30:40;0.95;;;0.60;;
43311;SDS011;30041;48.300;16.352;2024-01-30T04:33:06;0.70;;;0.40;;
43311;SDS011;30041;48.300;16.352;2024-01-30T04:35:32;0.82;;;0.40;;
43311;SDS011;30041;48.300;16.352;2024-01-30T04:37:58;0.30;;;0.20;;
43311;SDS011;30041;48.300;16.352;2024-01-30T04:40:23;0.30;;;0.30;;
43311;SDS011;30041;48.300;16.352;2024-01-30T04:42:49;0.57;;;0.40;;
43311;SDS011;30041;48.300;16.352;2024-01-30T04:45:17;1.10;;;0.50;;
43311;SDS011;30041;48.300;16.352;2024-01-30T04:47:43;0.82;;;0.50;;
43311;SDS011;30041;48.300;16.352;2024-01-30T04:50:09;0.30;;;0.30;;
43311;SDS011;30041;48.300;16.352;2024-01-30T04:52:35;0.43;;;0.40;;
43311;SDS011;30041;48.300;16.352;2024-01-30T04:55:01;0.63;;;0.30;;
43311;SDS011;30041;48.300;16.352;2024-01-30T04:57:27;0.35;;;0.30;;
43311;SDS011;30041;48.300;16.352;2024-01-30T04:59:53;0.60;;;0.40;;
43311;SDS011;30041;48.300;16.352;2024-01-30T05:02:19;0.40;;;0.40;;
43311;SDS011;30041;48.300;16.352;2024-01-30T05:04:44;0.52;;;0.30;;
43311;SDS011;30041;48.300;16.352;2024-01-30T05:07:10;0.60;;;0.45;;
43311;SDS011;30041;48.300;16.352;2024-01-30T05:09:36;0.50;;;0.32;;
43311;SDS011;30041;48.300;16.352;2024-01-30T05:12:02;0.40;;;0.30;;
43311;SDS011;30041;48.300;16.352;2024-01-30T05:14:28;0.40;;;0.30;;
43311;SDS011;30041;48.300;16.352;2024-01-30T05:16:54;0.30;;;0.22;;
43311;SDS011;30041;48.300;16.352;2024-01-30T05:19:19;0.55;;;0.50;;
43311;SDS011;30041;48.300;16.352;2024-01-30T05:21:45;0.32;;;0.20;;
43311;SDS011;30041;48.300;16.352;2024-01-30T05:24:11;0.63;;;0.30;;
43311;SDS011;30041;48.300;16.352;2024-01-30T05:26:37;0.30;;;0.22;;
43311;SDS011;30041;48.300;16.352;2024-01-30T05:29:03;0.75;;;0.20;;
43311;SDS011;30041;48.300;16.352;2024-01-30T05:31:29;0.30;;;0.30;;
43311;SDS011;30041;48.300;16.352;2024-01-30T05:33:55;0.50;;;0.30;;
43311;SDS011;30041;48.300;16.352;2024-01-30T05:36:21;0.40;;;0.22;;
43311;SDS011;30041;48.300;16.352;2024-01-30T05:38:47;0.30;;;0.30;;
43311;SDS011;30041;48.300;16.352;2024-01-30T05:41:12;0.30;;;0.30;;
43311;SDS011;30041;48.300;16.352;2024-01-30T05:43:38;0.20;;;0.20;;
43311;SDS011;30041;48.300;16.352;2024-01-30T05:46:04;0.60;;;0.20;;
43311;SDS011;30041;48.300;16.352;2024-01-30T05:48:30;0.30;;;0.20;;
43311;SDS011;30041;48.300;16.352;2024-01-30T05:50:56;0.32;;;0.20;;
43311;SDS011;30041;48.300;16.352;2024-01-30T05:53:21;0.25;;;0.25;;
43311;SDS011;30041;48.300;16.352;2024-01-30T05:55:47;0.10;;;0.10;;
43311;SDS011;30041;48.300;16.352;2024-01-30T05:58:13;0.25;;;0.20;;
43311;SDS011;30041;48.300;16.352;2024-01-30T06:00:39;0.30;;;0.22;;
43311;SDS011;30041;48.300;16.352;2024-01-30T06:03:04;0.32;;;0.20;;
43311;SDS011;30041;48.300;16.352;2024-01-30T06:05:30;0.30;;;0.20;;
43311;SDS011;30041;48.300;16.352;2024-01-30T06:07:56;0.40;;;0.30;;
43311;SDS011;30041;48.300;16.352;2024-01-30T06:10:22;0.30;;;0.22;;
43311;SDS011;30041;48.300;16.352;2024-01-30T06:12:47;0.88;;;0.50;;
43311;SDS011;30041;48.300;16.352;2024-01-30T06:15:13;0.85;;;0.50;;
43311;SDS011;30041;48.300;16.352;2024-01-30T06:17:39;0.43;;;0.32;;
43311;SDS011;30041;48.300;16.352;2024-01-30T06:20:05;0.75;;;0.43;;
43311;SDS011;30041;48.300;16.352;2024-01-30T06:22:33;0.70;;;0.40;;
43311;SDS011;30041;48.300;16.352;2024-01-30T06:25:04;0.43;;;0.30;;
43311;SDS011;30041;48.300;16.352;2024-01-30T06:27:30;0.45;;;0.38;;
43311;SDS011;30041;48.300;16.352;2024-01-30T06:29:56;0.57;;;0.50;;
43311;SDS011;30041;48.300;16.352;2024-01-30T06:32:21;0.85;;;0.47;;
43311;SDS011;30041;48.300;16.352;2024-01-30T06:34:50;0.43;;;0.40;;
43311;SDS011;30041;48.300;16.352;2024-01-30T06:37:16;1.20;;;0.60;;
43311;SDS011;30041;48.300;16.352;2024-01-30T06:39:42;0.95;;;0.50;;
43311;SDS011;30041;48.300;16.352;2024-01-30T06:42:07;0.95;;;0.40;;
43311;SDS011;30041;48.300;16.352;2024-01-30T06:44:33;1.65;;;0.47;;
43311;SDS011;30041;48.300;16.352;2024-01-30T06:46:59;0.73;;;0.60;;
43311;SDS011;30041;48.300;16.352;2024-01-30T06:49:27;0.85;;;0.55;;
43311;SDS011;30041;48.300;16.352;2024-01-30T06:51:53;0.73;;;0.50;;
43311;SDS011;30041;48.300;16.352;2024-01-30T06:54:19;0.85;;;0.50;;
43311;SDS011;30041;48.300;16.352;2024-01-30T06:56:47;0.90;;;0.70;;
43311;SDS011;30041;48.300;16.352;2024-01-30T06:59:13;0.63;;;0.43;;
43311;SDS011;30041;48.300;16.352;2024-01-30T07:01:38;1.25;;;0.57;;
43311;SDS011;30041;48.300;16.352;2024-01-30T07:04:04;1.10;;;0.70;;
43311;SDS011;30041;48.300;16.352;2024-01-30T07:06:33;0.88;;;0.60;;
43311;SDS011;30041;48.300;16.352;2024-01-30T07:08:58;1.20;;;0.60;;
43311;SDS011;30041;48.300;16.352;2024-01-30T07:11:24;1.27;;;0.70;;
43311;SDS011;30041;48.300;16.352;2024-01-30T07:13:50;1.20;;;0.70;;
43311;SDS011;30041;48.300;16.352;2024-01-30T07:16:16;1.88;;;0.80;;
43311;SDS011;30041;48.300;16.352;2024-01-30T07:18:43;1.17;;;0.70;;
43311;SDS011;30041;48.300;16.352;2024-01-30T07:21:09;1.40;;;0.90;;
43311;SDS011;30041;48.300;16.352;2024-01-30T07:23:34;1.00;;;0.70;;
43311;SDS011;30041;48.300;16.352;2024-01-30T07:26:03;0.88;;;0.65;;
43311;SDS011;30041;48.300;16.352;2024-01-30T07:28:31;2.55;;;1.10;;
43311;SDS011;30041;48.300;16.352;2024-01-30T07:30:57;1.50;;;0.90;;
43311;SDS011;30041;48.300;16.352;2024-01-30T07:33:23;1.42;;;0.90;;
43311;SDS011;30041;48.300;16.352;2024-01-30T07:35:48;1.50;;;0.93;;
43311;SDS011;30041;48.300;16.352;2024-01-30T07:38:14;1.75;;;0.90;;
43311;SDS011;30041;48.300;16.352;2024-01-30T07:40:43;1.88;;;0.82;;
43311;SDS011;30041;48.300;16.352;2024-01-30T07:43:09;1.77;;;0.90;;
43311;SDS011;30041;48.300;16.352;2024-01-30T07:45:35;1.20;;;0.82;;
43311;SDS011;30041;48.300;16.352;2024-01-30T07:48:01;1.77;;;0.85;;
43311;SDS011;30041;48.300;16.352;2024-01-30T07:50:29;2.40;;;1.13;;
43311;SDS011;30041;48.300;16.352;2024-01-30T07:52:55;1.55;;;1.00;;
43311;SDS011;30041;48.300;16.352;2024-01-30T07:55:21;1.50;;;0.80;;
43311;SDS011;30041;48.300;16.352;2024-01-30T07:57:47;1.73;;;0.90;;
43311;SDS011;30041;48.300;16.352;2024-01-30T08:00:13;1.10;;;0.73;;
43311;SDS011;30041;48.300;16.352;2024-01-30T08:02:40;2.08;;;0.80;;
43311;SDS011;30041;48.300;16.352;2024-01-30T08:05:08;1.50;;;0.98;;
43311;SDS011;30041;48.300;16.352;2024-01-30T08:07:34;1.88;;;1.00;;
43311;SDS011;30041;48.300;16.352;2024-01-30T08:10:00;2.13;;;1.10;;
43311;SDS011;30041;48.300;16.352;2024-01-30T08:12:25;1.45;;;1.00;;
43311;SDS011;30041;48.300;16.352;2024-01-30T08:14:51;1.58;;;1.00;;
43311;SDS011;30041;48.300;16.352;2024-01-30T08:17:17;1.85;;;1.10;;
43311;SDS011;30041;48.300;16.352;2024-01-30T08:19:46;1.00;;;0.80;;
43311;SDS011;30041;48.300;16.352;2024-01-30T08:22:12;2.28;;;0.98;;
43311;SDS011;30041;48.300;16.352;2024-01-30T08:24:40;2.25;;;1.17;;
43311;SDS011;30041;48.300;16.352;2024-01-30T08:27:06;1.48;;;0.90;;
43311;SDS011;30041;48.300;16.352;2024-01-30T08:29:32;1.55;;;0.90;;
43311;SDS011;30041;48.300;16.352;2024-01-30T08:31:58;1.20;;;0.90;;
43311;SDS011;30041;48.300;16.352;2024-01-30T08:34:24;1.08;;;0.90;;
43311;SDS011;30041;48.300;16.352;2024-01-30T08:36:53;2.03;;;0.90;;
43311;SDS011;30041;48.300;16.352;2024-01-30T08:39:21;2.08;;;1.30;;
43311;SDS011;30041;48.300;16.352;2024-01-30T08:41:47;1.38;;;0.93;;
43311;SDS011;30041;48.300;16.352;2024-01-30T08:44:13;1.58;;;1.00;;
43311;SDS011;30041;48.300;16.352;2024-01-30T08:46:41;1.38;;;0.77;;
43311;SDS011;30041;48.300;16.352;2024-01-30T08:49:07;1.63;;;1.13;;
43311;SDS011;30041;48.300;16.352;2024-01-30T08:51:32;1.50;;;1.02;;
43311;SDS011;30041;48.300;16.352;2024-01-30T08:53:58;1.13;;;0.90;;
43311;SDS011;30041;48.300;16.352;2024-01-30T08:56:24;1.30;;;1.00;;
43311;SDS011;30041;48.300;16.352;2024-01-30T08:58:50;1.30;;;0.95;;
43311;SDS011;30041;48.300;16.352;2024-01-30T09:01:16;2.03;;;1.20;;
43311;SDS011;30041;48.300;16.352;2024-01-30T09:03:42;1.55;;;1.00;;
43311;SDS011;30041;48.300;16.352;2024-01-30T09:06:08;1.35;;;0.90;;
43311;SDS011;30041;48.300;16.352;2024-01-30T09:08:35;1.50;;;1.00;;
43311;SDS011;30041;48.300;16.352;2024-01-30T09:11:01;1.52;;;1.05;;
43311;SDS011;30041;48.300;16.352;2024-01-30T09:13:26;1.48;;;0.93;;
43311;SDS011;30041;48.300;16.352;2024-01-30T09:15:52;1.48;;;1.00;;
43311;SDS011;30041;48.300;16.352;2024-01-30T09:18:18;1.30;;;1.00;;
43311;SDS011;30041;48.300;16.352;2024-01-30T09:20:44;1.92;;;1.10;;
43311;SDS011;30041;48.300;16.352;2024-01-30T09:23:10;1.30;;;1.02;;
43311;SDS011;30041;48.300;16.352;2024-01-30T09:25:38;1.40;;;1.02;;
43311;SDS011;30041;48.300;16.352;2024-01-30T09:28:04;1.20;;;0.90;;
43311;SDS011;30041;48.300;16.352;2024-01-30T09:30:30;2.20;;;1.10;;
43311;SDS011;30041;48.300;16.352;2024-01-30T09:32:56;1.50;;;1.10;;
43311;SDS011;30041;48.300;16.352;2024-01-30T09:35:22;2.47;;;1.20;;
43311;SDS011;30041;48.300;16.352;2024-01-30T09:37:48;2.13;;;0.95;;
43311;SDS011;30041;48.300;16.352;2024-01-30T09:40:14;2.13;;;1.23;;
43311;SDS011;30041;48.300;16.352;2024-01-30T09:42:40;1.67;;;1.17;;
43311;SDS011;30041;48.300;16.352;2024-01-30T09:45:09;1.58;;;1.00;;
43311;SDS011;30041;48.300;16.352;2024-01-30T09:47:40;1.55;;;1.10;;
43311;SDS011;30041;48.300;16.352;2024-01-30T09:50:07;1.50;;;1.10;;
43311;SDS011;30041;48.300;16.352;2024-01-30T09:52:34;1.55;;;0.95;;
43311;SDS011;30041;48.300;16.352;2024-01-30T09:55:00;1.83;;;1.10;;
43311;SDS011;30041;48.300;16.352;2024-01-30T09:57:26;1.13;;;0.85;;
43311;SDS011;30041;48.300;16.352;2024-01-30T09:59:52;1.80;;;1.10;;
43311;SDS011;30041;48.300;16.352;2024-01-30T10:02:18;1.75;;;1.20;;
43311;SDS011;30041;48.300;16.352;2024-01-30T10:04:44;1.58;;;1.00;;
43311;SDS011;30041;48.300;16.352;2024-01-30T10:07:13;1.35;;;1.05;;
43311;SDS011;30041;48.300;16.352;2024-01-30T10:09:40;2.63;;;1.33;;
43311;SDS011;30041;48.300;16.352;2024-01-30T10:12:08;1.65;;;1.10;;
43311;SDS011;30041;48.300;16.352;2024-01-30T10:14:41;1.20;;;0.90;;
43311;SDS011;30041;48.300;16.352;2024-01-30T10:17:08;1.70;;;1.00;;
43311;SDS011;30041;48.300;16.352;2024-01-30T10:19:42;1.33;;;0.95;;
43311;SDS011;30041;48.300;16.352;2024-01-30T10:22:09;1.60;;;1.10;;
43311;SDS011;30041;48.300;16.352;2024-01-30T10:24:35;1.70;;;1.10;;
43311;SDS011;30041;48.300;16.352;2024-01-30T10:27:01;1.00;;;0.90;;
43311;SDS011;30041;48.300;16.352;2024-01-30T10:29:27;1.45;;;1.00;;
43311;SDS011;30041;48.300;16.352;2024-01-30T10:32:03;1.50;;;1.00;;
43311;SDS011;30041;48.300;16.352;2024-01-30T10:34:30;2.00;;;1.10;;
43311;SDS011;30041;48.300;16.352;2024-01-30T10:39:37;1.52;;;1.15;;
43311;SDS011;30041;48.300;16.352;2024-01-30T10:42:04;1.60;;;1.15;;
43311;SDS011;30041;48.300;16.352;2024-01-30T10:44:43;1.30;;;1.05;;
43311;SDS011;30041;48.300;16.352;2024-01-30T10:47:24;1.40;;;0.98;;
43311;SDS011;30041;48.300;16.352;2024-01-30T10:49:52;2.58;;;1.10;;
43311;SDS011;30041;48.300;16.352;2024-01-30T10:52:20;1.60;;;1.10;;
43311;SDS011;30041;48.300;16.352;2024-01-30T10:54:48;1.77;;;1.23;;
43311;SDS011;30041;48.300;16.352;2024-01-30T10:57:17;1.65;;;1.10;;
43311;SDS011;30041;48.300;16.352;2024-01-30T10:59:46;2.13;;;1.20;;
43311;SDS011;30041;48.300;16.352;2024-01-30T11:02:12;1.17;;;0.90;;
43311;SDS011;30041;48.300;16.352;2024-01-30T11:04:42;1.92;;;1.15;;
43311;SDS011;30041;48.300;16.352;2024-01-30T11:07:15;1.27;;;1.02;;
43311;SDS011;30041;48.300;16.352;2024-01-30T11:09:51;1.67;;;1.20;;
43311;SDS011;30041;48.300;16.352;2024-01-30T11:12:27;1.85;;;1.20;;
43311;SDS011;30041;48.300;16.352;2024-01-30T11:22:47;1.60;;;1.10;;
43311;SDS011;30041;48.300;16.352;2024-01-30T11:25:16;1.80;;;1.38;;
43311;SDS011;30041;48.300;16.352;2024-01-30T11:27:44;1.80;;;1.15;;
43311;SDS011;30041;48.300;16.352;2024-01-30T11:30:20;1.15;;;1.00;;
43311;SDS011;30041;48.300;16.352;2024-01-30T11:35:25;1.38;;;1.10;;
43311;SDS011;30041;48.300;16.352;2024-01-30T11:37:51;1.83;;;1.40;;
43311;SDS011;30041;48.300;16.352;2024-01-30T11:40:19;9.85;;;2.10;;
43311;SDS011;30041;48.300;16.352;2024-01-30T11:42:46;6.38;;;2.05;;
43311;SDS011;30041;48.300;16.352;2024-01-30T11:45:14;4.15;;;2.17;;
43311;SDS011;30041;48.300;16.352;2024-01-30T11:47:42;5.57;;;2.33;;
43311;SDS011;30041;48.300;16.352;2024-01-30T11:50:08;7.50;;;2.78;;
43311;SDS011;30041;48.300;16.352;2024-01-30T11:52:34;4.70;;;2.70;;
43311;SDS011;30041;48.300;16.352;2024-01-30T11:55:00;4.22;;;2.80;;
43311;SDS011;30041;48.300;16.352;2024-01-30T11:57:27;5.75;;;3.15;;
43311;SDS011;30041;48.300;16.352;2024-01-30T11:59:53;4.40;;;2.70;;
43311;SDS011;30041;48.300;16.352;2024-01-30T12:02:18;7.05;;;3.40;;
43311;SDS011;30041;48.300;16.352;2024-01-30T12:04:44;5.85;;;3.50;;
43311;SDS011;30041;48.300;16.352;2024-01-30T12:07:12;6.13;;;3.22;;
43311;SDS011;30041;48.300;16.352;2024-01-30T12:09:38;4.78;;;3.13;;
43311;SDS011;30041;48.300;16.352;2024-01-30T12:12:04;7.10;;;3.17;;
43311;SDS011;30041;48.300;16.352;2024-01-30T12:14:32;6.10;;;3.28;;
43311;SDS011;30041;48.300;16.352;2024-01-30T12:16:58;12.25;;;3.05;;
43311;SDS011;30041;48.300;16.352;2024-01-30T12:19:24;5.63;;;3.70;;
43311;SDS011;30041;48.300;16.352;2024-01-30T12:21:54;6.47;;;3.60;;
43311;SDS011;30041;48.300;16.352;2024-01-30T12:24:23;5.80;;;3.78;;
43311;SDS011;30041;48.300;16.352;2024-01-30T12:26:49;6.15;;;3.78;;
43311;SDS011;30041;48.300;16.352;2024-01-30T12:29:17;4.88;;;3.33;;
43311;SDS011;30041;48.300;16.352;2024-01-30T12:31:46;5.18;;;4.13;;
43311;SDS011;30041;48.300;16.352;2024-01-30T12:34:13;5.97;;;4.30;;
43311;SDS011;30041;48.300;16.352;2024-01-30T12:36:39;5.28;;;3.75;;
43311;SDS011;30041;48.300;16.352;2024-01-30T12:39:05;4.32;;;3.83;;
43311;SDS011;30041;48.300;16.352;2024-01-30T12:41:31;6.63;;;4.25;;
43311;SDS011;30041;48.300;16.352;2024-01-30T12:43:57;4.15;;;3.53;;
43311;SDS011;30041;48.300;16.352;2024-01-30T12:46:30;5.82;;;3.65;;
43311;SDS011;30041;48.300;16.352;2024-01-30T12:48:56;6.55;;;3.80;;
43311;SDS011;30041;48.300;16.352;2024-01-30T12:51:22;4.90;;;3.55;;
43311;SDS011;30041;48.300;16.352;2024-01-30T12:53:47;4.38;;;3.70;;
43311;SDS011;30041;48.300;16.352;2024-01-30T12:56:16;6.72;;;4.22;;
43311;SDS011;30041;48.300;16.352;2024-01-30T12:58:42;4.85;;;3.75;;
43311;SDS011;30041;48.300;16.352;2024-01-30T13:01:08;4.38;;;3.70;;
43311;SDS011;30041;48.300;16.352;2024-01-30T13:03:35;4.65;;;3.90;;
43311;SDS011;30041;48.300;16.352;2024-01-30T13:06:00;4.60;;;4.00;;
43311;SDS011;30041;48.300;16.352;2024-01-30T13:08:27;5.68;;;4.00;;
43311;SDS011;30041;48.300;16.352;2024-01-30T13:10:55;4.35;;;3.95;;
43311;SDS011;30041;48.300;16.352;2024-01-30T13:13:23;4.95;;;4.05;;
43311;SDS011;30041;48.300;16.352;2024-01-30T13:15:49;5.20;;;4.00;;
43311;SDS011;30041;48.300;16.352;2024-01-30T13:18:15;4.70;;;3.80;;
43311;SDS011;30041;48.300;16.352;2024-01-30T13:20:41;4.70;;;3.80;;
43311;SDS011;30041;48.300;16.352;2024-01-30T13:23:06;4.65;;;3.70;;
43311;SDS011;30041;48.300;16.352;2024-01-30T13:25:35;5.70;;;3.83;;
43311;SDS011;30041;48.300;16.352;2024-01-30T13:28:00;6.63;;;4.07;;
43311;SDS011;30041;48.300;16.352;2024-01-30T13:30:26;6.60;;;4.10;;
43311;SDS011;30041;48.300;16.352;2024-01-30T13:32:52;4.68;;;3.65;;
43311;SDS011;30041;48.300;16.352;2024-01-30T13:35:21;4.22;;;3.60;;
43311;SDS011;30041;48.300;16.352;2024-01-30T13:37:49;4.38;;;3.90;;
43311;SDS011;30041;48.300;16.352;2024-01-30T13:40:15;4.13;;;3.65;;
43311;SDS011;30041;48.300;16.352;2024-01-30T13:42:40;4.65;;;3.75;;
43311;SDS011;30041;48.300;16.352;2024-01-30T13:45:08;5.20;;;3.90;;
43311;SDS011;30041;48.300;16.352;2024-01-30T13:47:34;4.60;;;3.80;;
43311;SDS011;30041;48.300;16.352;2024-01-30T13:50:00;5.38;;;3.90;;
43311;SDS011;30041;48.300;16.352;2024-01-30T13:52:28;5.15;;;3.47;;
43311;SDS011;30041;48.300;16.352;2024-01-30T13:54:54;4.50;;;3.65;;
43311;SDS011;30041;48.300;16.352;2024-01-30T13:57:20;4.78;;;3.60;;
43311;SDS011;30041;48.300;16.352;2024-01-30T13:59:48;5.22;;;3.55;;
43311;SDS011;30041;48.300;16.352;2024-01-30T14:02:14;4.10;;;3.60;;
43311;SDS011;30041;48.300;16.352;2024-01-30T14:04:40;6.32;;;3.63;;
43311;SDS011;30041;48.300;16.352;2024-01-30T14:07:06;4.82;;;3.83;;
43311;SDS011;30041;48.300;16.352;2024-01-30T14:09:31;8.32;;;3.92;;
43311;SDS011;30041;48.300;16.352;2024-01-30T14:11:58;5.97;;;3.63;;
43311;SDS011;30041;48.300;16.352;2024-01-30T14:14:23;4.78;;;3.50;;
43311;SDS011;30041;48.300;16.352;2024-01-30T14:16:49;6.53;;;3.70;;
43311;SDS011;30041;48.300;16.352;2024-01-30T14:19:15;5.30;;;3.50;;
43311;SDS011;30041;48.300;16.352;2024-01-30T14:21:41;4.75;;;3.05;;
43311;SDS011;30041;48.300;16.352;2024-01-30T14:24:07;4.45;;;3.72;;
43311;SDS011;30041;48.300;16.352;2024-01-30T14:26:33;6.90;;;4.47;;
43311;SDS011;30041;48.300;16.352;2024-01-30T14:28:58;8.10;;;5.90;;
43311;SDS011;30041;48.300;16.352;2024-01-30T14:31:24;13.02;;;5.45;;
43311;SDS011;30041;48.300;16.352;2024-01-30T14:33:50;15.32;;;5.75;;
43311;SDS011;30041;48.300;16.352;2024-01-30T14:36:16;12.27;;;6.15;;
43311;SDS011;30041;48.300;16.352;2024-01-30T14:38:42;13.07;;;6.18;;
43311;SDS011;30041;48.300;16.352;2024-01-30T14:41:08;12.13;;;6.28;;